Time;durP1;ratioP1;P1;durP2;ratioP2;P2;SDS_P1;SDS_P2;PMS_P1;PMS_P2;Temp;Humidity;BMP_temperature;BMP_pressure;BME280_temperature;BME280_humidity;BME280_pressure;Samples;Min_cycle;Max_cycle;Signal;HPM_P1;HPM_P2
2021/12/09 00:01:07;;;;;;;30.50;12.02;;;2.90;91.80;;;;;;5039677;28;20075;-83
2021/12/09 00:03:39;;;;;;;34.77;11.43;;;2.90;91.80;;;;;;5056165;28;20441;-83
2021/12/09 00:06:05;;;;;;;25.77;11.48;;;3.00;91.80;;;;;;5053685;28;20082;-83
2021/12/09 00:08:33;;;;;;;31.75;11.63;;;2.90;91.80;;;;;;5033685;28;20072;-83
2021/12/09 00:11:02;;;;;;;34.50;12.02;;;2.90;91.80;;;;;;5053620;28;20457;-83
2021/12/09 00:13:28;;;;;;;29.02;11.05;;;2.90;92.20;;;;;;5039745;28;20081;-83
2021/12/09 00:15:55;;;;;;;35.30;12.10;;;2.90;91.90;;;;;;5053168;28;21767;-83
2021/12/09 00:18:21;;;;;;;28.58;11.27;;;2.90;91.90;;;;;;5052511;28;20086;-83
2021/12/09 00:20:47;;;;;;;28.73;12.13;;;2.90;91.90;;;;;;5035796;28;20137;-83
2021/12/09 00:23:14;;;;;;;27.20;12.63;;;2.90;91.90;;;;;;5035904;28;20393;-83
2021/12/09 00:25:40;;;;;;;33.92;12.77;;;2.90;91.90;;;;;;5036112;28;20067;-83
2021/12/09 00:28:06;;;;;;;35.83;12.65;;;2.90;91.90;;;;;;5050785;28;20093;-83
2021/12/09 00:30:33;;;;;;;43.30;14.48;;;2.90;91.90;;;;;;5070511;28;20173;-83
2021/12/09 00:33:01;;;;;;;34.83;14.07;;;2.90;92.00;;;;;;5053975;28;20668;-83
2021/12/09 00:35:32;;;;;;;35.08;13.73;;;2.90;92.00;;;;;;5053818;28;20079;-84
2021/12/09 00:38:07;;;;;;;41.58;13.40;;;2.90;92.00;;;;;;5044776;28;20090;-83
2021/12/09 00:40:33;;;;;;;33.08;12.40;;;2.90;92.00;;;;;;5049248;28;20075;-83
2021/12/09 00:43:00;;;;;;;33.60;14.07;;;2.90;92.00;;;;;;5047015;28;20133;-82
2021/12/09 00:45:26;;;;;;;37.92;14.73;;;2.90;92.00;;;;;;5032844;28;20075;-82
2021/12/09 00:47:52;;;;;;;35.50;14.15;;;2.90;92.00;;;;;;5053769;28;20090;-83
2021/12/09 00:50:19;;;;;;;42.15;14.70;;;2.80;92.00;;;;;;5071326;28;20115;-83
2021/12/09 00:52:45;;;;;;;28.60;13.38;;;2.80;92.00;;;;;;5036386;28;20083;-83
2021/12/09 00:55:12;;;;;;;39.67;14.52;;;2.80;92.00;;;;;;5022104;28;20584;-82
2021/12/09 00:57:39;;;;;;;37.42;14.27;;;2.80;92.00;;;;;;5028751;28;20395;-83
2021/12/09 01:00:09;;;;;;;36.40;14.63;;;2.80;92.00;;;;;;5051797;28;20111;-83
2021/12/09 01:02:35;;;;;;;43.97;15.18;;;2.80;92.10;;;;;;5050725;28;20071;-83
2021/12/09 01:05:00;;;;;;;36.78;15.52;;;2.80;92.10;;;;;;5040170;28;20557;-83
2021/12/09 01:07:26;;;;;;;41.90;15.52;;;2.80;92.10;;;;;;5037758;28;20635;-82
2021/12/09 01:09:52;;;;;;;46.42;15.93;;;2.80;92.10;;;;;;5054163;28;20105;-82
2021/12/09 01:12:17;;;;;;;36.67;14.98;;;2.70;92.40;;;;;;5033115;28;20091;-82
2021/12/09 01:14:44;;;;;;;38.97;15.98;;;2.70;92.10;;;;;;5035406;28;20114;-82
2021/12/09 01:17:11;;;;;;;44.60;16.10;;;2.80;92.10;;;;;;5034627;28;20098;-82
2021/12/09 01:19:38;;;;;;;40.08;14.93;;;2.70;92.10;;;;;;5035588;28;20074;-82
2021/12/09 01:22:04;;;;;;;40.60;16.63;;;2.70;92.10;;;;;;5038781;28;20561;-82
2021/12/09 01:24:30;;;;;;;54.60;17.10;;;2.70;92.20;;;;;;5046242;28;20083;-82
2021/12/09 01:26:57;;;;;;;35.95;16.95;;;2.70;92.20;;;;;;5049089;28;20138;-82
2021/12/09 01:29:32;;;;;;;49.70;18.33;;;2.70;92.20;;;;;;5046225;28;20105;-82
2021/12/09 01:32:02;;;;;;;42.53;16.95;;;2.70;92.20;;;;;;5056384;28;20111;-82
2021/12/09 01:34:28;;;;;;;41.15;16.35;;;2.70;92.20;;;;;;5057261;28;20074;-84
2021/12/09 01:36:54;;;;;;;43.80;17.15;;;2.70;92.20;;;;;;5053992;28;20075;-83
2021/12/09 01:39:21;;;;;;;43.70;17.73;;;2.70;92.20;;;;;;5049911;28;20145;-83
2021/12/09 01:41:47;;;;;;;42.38;16.10;;;2.70;92.20;;;;;;5052956;28;20083;-83
2021/12/09 01:44:13;;;;;;;45.47;18.08;;;2.70;92.20;;;;;;5047169;28;20087;-82
2021/12/09 01:46:39;;;;;;;50.45;18.60;;;2.60;92.20;;;;;;5048486;28;20569;-83
2021/12/09 01:49:05;;;;;;;45.13;17.08;;;2.60;92.20;;;;;;5029526;28;20459;-83
2021/12/09 01:51:31;;;;;;;42.13;17.60;;;2.60;92.20;;;;;;5036662;28;20091;-82
2021/12/09 01:53:56;;;;;;;52.00;18.38;;;2.60;92.30;;;;;;5019360;28;20438;-83
2021/12/09 01:56:26;;;;;;;44.83;18.23;;;2.60;92.30;;;;;;5037327;28;20074;-83
2021/12/09 01:58:57;;;;;;;46.20;18.40;;;2.60;92.30;;;;;;5051523;28;20082;-83
2021/12/09 02:01:23;;;;;;;49.88;18.63;;;2.60;92.30;;;;;;5062530;28;20090;-82
2021/12/09 02:03:49;;;;;;;52.38;19.00;;;2.60;92.30;;;;;;5039676;28;20538;-83
2021/12/09 02:06:17;;;;;;;44.33;18.60;;;2.60;92.30;;;;;;5054114;28;20436;-82
2021/12/09 02:08:43;;;;;;;45.83;18.30;;;2.60;92.30;;;;;;5077868;28;20074;-82
2021/12/09 02:11:09;;;;;;;46.00;17.52;;;2.60;92.30;;;;;;5049005;28;20082;-83
2021/12/09 02:13:35;;;;;;;53.00;19.52;;;2.50;92.30;;;;;;5038322;28;20075;-82
2021/12/09 02:16:02;;;;;;;45.30;18.13;;;2.50;92.30;;;;;;5053682;28;20125;-82
2021/12/09 02:18:28;;;;;;;46.03;18.43;;;2.50;92.30;;;;;;5053259;28;20610;-82
2021/12/09 02:21:14;;;;;;;43.33;18.17;;;2.50;92.30;;;;;;5054193;28;20182;-83
2021/12/09 02:23:43;;;;;;;39.58;17.50;;;2.50;92.30;;;;;;5031189;28;20075;-82
2021/12/09 02:26:10;;;;;;;43.30;19.83;;;2.50;92.30;;;;;;5065576;28;20093;-82
2021/12/09 02:28:36;;;;;;;39.58;17.63;;;2.50;92.30;;;;;;5053325;28;20074;-82
2021/12/09 02:31:02;;;;;;;41.63;18.07;;;2.40;92.30;;;;;;5053471;28;20085;-82
2021/12/09 02:33:27;;;;;;;44.28;18.77;;;2.40;92.30;;;;;;5057841;28;20075;-82
2021/12/09 02:35:53;;;;;;;51.50;19.53;;;2.40;92.30;;;;;;5042872;28;20075;-82
2021/12/09 02:38:19;;;;;;;47.40;20.77;;;2.40;92.30;;;;;;5048286;28;20071;-82
2021/12/09 02:40:47;;;;;;;53.70;20.02;;;2.40;92.30;;;;;;5031557;28;20650;-83
2021/12/09 02:43:13;;;;;;;49.93;18.27;;;2.30;92.30;;;;;;5055755;28;20071;-83
2021/12/09 02:45:41;;;;;;;48.72;19.88;;;2.30;92.30;;;;;;5073579;28;20103;-83
2021/12/09 02:48:07;;;;;;;52.63;17.92;;;2.30;92.30;;;;;;5057114;28;20554;-82
2021/12/09 02:50:33;;;;;;;48.83;18.77;;;2.30;92.30;;;;;;5040043;28;20153;-82
2021/12/09 02:52:59;;;;;;;47.03;20.17;;;2.30;92.30;;;;;;5038690;28;20166;-82
2021/12/09 02:55:25;;;;;;;45.97;19.15;;;2.30;92.40;;;;;;5030219;28;20172;-83
2021/12/09 02:57:52;;;;;;;43.40;19.17;;;2.20;92.30;;;;;;5055857;28;20079;-83
2021/12/09 03:00:20;;;;;;;44.67;17.17;;;2.20;92.40;;;;;;5058646;28;20148;-82
2021/12/09 03:02:46;;;;;;;46.47;18.77;;;2.20;92.30;;;;;;5039513;28;20076;-82
2021/12/09 03:05:12;;;;;;;53.30;20.33;;;2.20;92.30;;;;;;5038898;28;20175;-83
2021/12/09 03:07:41;;;;;;;48.90;19.70;;;2.10;92.40;;;;;;5069848;28;20074;-82
2021/12/09 03:10:19;;;;;;;48.13;19.37;;;2.10;92.40;;;;;;5070548;28;20079;-82
2021/12/09 03:12:45;;;;;;;52.92;19.35;;;2.10;92.40;;;;;;5070267;28;20097;-83
2021/12/09 03:15:11;;;;;;;57.87;21.43;;;2.10;92.40;;;;;;5054652;28;20063;-82
2021/12/09 03:17:40;;;;;;;51.10;21.63;;;2.10;92.40;;;;;;5069784;28;20155;-82
2021/12/09 03:20:08;;;;;;;54.37;19.57;;;2.10;92.40;;;;;;5035699;28;20099;-82
2021/12/09 03:22:35;;;;;;;45.33;18.13;;;2.10;92.80;;;;;;5071642;28;20517;-82
2021/12/09 03:25:01;;;;;;;54.03;20.87;;;2.10;92.40;;;;;;5048576;28;20518;-82
2021/12/09 03:27:26;;;;;;;46.57;19.90;;;2.00;92.50;;;;;;5069743;28;20115;-82
2021/12/09 03:29:52;;;;;;;47.93;20.57;;;2.10;92.50;;;;;;5052676;28;20097;-82
2021/12/09 03:32:19;;;;;;;50.03;21.13;;;2.00;92.50;;;;;;5052746;28;20492;-82
2021/12/09 03:34:46;;;;;;;52.80;19.80;;;2.00;92.50;;;;;;5051913;28;20075;-82
2021/12/09 03:37:17;;;;;;;44.43;19.57;;;2.00;92.50;;;;;;5033796;28;20166;-82
2021/12/09 03:39:44;;;;;;;40.97;18.75;;;2.00;92.50;;;;;;5050592;28;20059;-81
2021/12/09 03:42:13;;;;;;;49.77;20.00;;;2.00;92.50;;;;;;5053923;28;20174;-82
2021/12/09 03:44:40;;;;;;;52.10;19.60;;;2.00;92.60;;;;;;5067843;28;20080;-82
2021/12/09 03:47:07;;;;;;;49.03;19.20;;;2.00;92.60;;;;;;5034634;28;20087;-82
2021/12/09 03:49:33;;;;;;;52.13;19.47;;;2.00;92.60;;;;;;5061537;28;20196;-82
2021/12/09 03:51:59;;;;;;;48.10;20.60;;;2.00;92.60;;;;;;5033415;28;20186;-82
2021/12/09 03:54:26;;;;;;;49.53;20.58;;;1.90;92.90;;;;;;5056332;28;20080;-82
2021/12/09 03:56:52;;;;;;;46.70;20.27;;;2.00;92.60;;;;;;5043247;28;20576;-82
2021/12/09 03:59:18;;;;;;;61.67;21.23;;;1.90;92.60;;;;;;5066349;28;20170;-82
2021/12/09 04:01:45;;;;;;;51.50;21.20;;;2.00;92.60;;;;;;5036022;28;20117;-82
2021/12/09 04:04:12;;;;;;;44.50;19.87;;;1.90;92.70;;;;;;5051938;28;20525;-82
2021/12/09 04:06:38;;;;;;;54.50;21.02;;;2.00;92.70;;;;;;5055225;28;20082;-82
2021/12/09 04:09:08;;;;;;;52.17;21.23;;;1.90;92.70;;;;;;5034872;28;20075;-82
2021/12/09 04:11:34;;;;;;;56.67;19.97;;;1.90;92.70;;;;;;5067579;28;20134;-82
2021/12/09 04:14:00;;;;;;;63.63;21.30;;;1.90;92.70;;;;;;5054981;28;20086;-82
2021/12/09 04:16:26;;;;;;;45.93;19.40;;;1.90;92.70;;;;;;5051035;28;20529;-82
2021/12/09 04:18:51;;;;;;;50.17;20.47;;;1.90;92.70;;;;;;5059634;28;20158;-82
2021/12/09 04:21:17;;;;;;;59.60;21.15;;;1.90;92.70;;;;;;5036683;28;20106;-82
2021/12/09 04:23:43;;;;;;;48.10;20.20;;;1.90;92.70;;;;;;5073370;28;20106;-83
2021/12/09 04:26:09;;;;;;;57.33;20.20;;;1.90;92.70;;;;;;5049577;28;20113;-82
2021/12/09 04:28:37;;;;;;;51.60;20.13;;;1.90;92.70;;;;;;5053611;28;20083;-82
2021/12/09 04:31:03;;;;;;;50.97;20.73;;;1.90;92.70;;;;;;5073041;28;20119;-82
2021/12/09 04:33:29;;;;;;;51.73;21.87;;;1.90;92.70;;;;;;5047386;28;20082;-82
2021/12/09 04:35:56;;;;;;;58.20;21.87;;;1.80;92.70;;;;;;5036178;28;20133;-82
2021/12/09 04:38:22;;;;;;;58.93;21.10;;;1.90;92.80;;;;;;5033115;28;20114;-82
2021/12/09 04:40:48;;;;;;;54.03;20.65;;;1.80;92.70;;;;;;5055111;28;20522;-81
2021/12/09 04:43:14;;;;;;;54.13;20.35;;;1.80;92.70;;;;;;5031764;28;20070;-82
2021/12/09 04:45:40;;;;;;;54.88;21.67;;;1.80;92.70;;;;;;5051131;28;20509;-82
2021/12/09 04:48:07;;;;;;;52.43;22.47;;;1.80;92.70;;;;;;5063809;28;20575;-82
2021/12/09 04:50:34;;;;;;;52.10;21.43;;;1.80;92.70;;;;;;5038186;28;20106;-82
2021/12/09 04:53:00;;;;;;;51.77;20.13;;;1.80;92.90;;;;;;5046289;28;20100;-82
2021/12/09 04:55:26;;;;;;;47.80;20.07;;;1.80;92.70;;;;;;5023246;28;20526;-81
2021/12/09 04:57:52;;;;;;;52.10;21.43;;;1.80;92.70;;;;;;5053061;28;20429;-82
2021/12/09 05:00:22;;;;;;;53.20;20.20;;;1.80;92.70;;;;;;5048318;28;20087;-82
2021/12/09 05:03:03;;;;;;;46.70;19.70;;;1.70;92.70;;;;;;5063743;28;20083;-82
2021/12/09 05:05:36;;;;;;;46.33;20.10;;;1.70;92.70;;;;;;5037841;28;20078;-80
2021/12/09 05:08:07;;;;;;;50.00;19.70;;;1.70;92.70;;;;;;5075250;28;20548;-82
2021/12/09 05:10:49;;;;;;;58.17;20.25;;;1.70;92.70;;;;;;5074254;28;20081;-80
2021/12/09 05:13:15;;;;;;;52.05;21.05;;;1.70;92.70;;;;;;5052066;28;20073;-81
2021/12/09 05:15:41;;;;;;;48.10;20.57;;;1.70;92.70;;;;;;5052086;28;20072;-83
2021/12/09 05:18:07;;;;;;;50.90;20.07;;;1.70;92.70;;;;;;5033792;28;21413;-84
2021/12/09 05:20:32;;;;;;;57.67;20.77;;;1.70;92.70;;;;;;5040162;28;20087;-79
2021/12/09 05:22:58;;;;;;;48.87;20.63;;;1.60;92.70;;;;;;5008802;28;20079;-86
2021/12/09 05:25:24;;;;;;;56.17;20.33;;;1.60;92.70;;;;;;5027255;28;20593;-83
2021/12/09 05:27:49;;;;;;;60.73;19.80;;;1.60;92.70;;;;;;5026867;28;20091;-79
2021/12/09 05:30:22;;;;;;;52.43;20.17;;;1.60;92.70;;;;;;5051397;28;20175;-84
2021/12/09 05:32:48;;;;;;;52.00;21.67;;;1.60;93.10;;;;;;5047265;28;20071;-82
2021/12/09 05:35:15;;;;;;;61.57;20.50;;;1.60;92.70;;;;;;5043121;28;20575;-83
2021/12/09 05:37:40;;;;;;;52.10;20.80;;;1.60;92.70;;;;;;5076028;28;20241;-83
2021/12/09 05:40:07;;;;;;;47.87;18.20;;;1.60;92.80;;;;;;5065290;28;20593;-85
2021/12/09 05:42:32;;;;;;;49.67;19.30;;;1.60;92.70;;;;;;5050630;28;20090;-86
2021/12/09 05:44:59;;;;;;;47.73;20.40;;;1.60;92.70;;;;;;5054094;28;20088;-86
2021/12/09 05:47:25;;;;;;;49.03;20.17;;;1.60;92.70;;;;;;5047151;28;20076;-85
2021/12/09 05:49:53;;;;;;;50.00;21.00;;;1.60;92.70;;;;;;5057982;28;20205;-87
2021/12/09 05:52:19;;;;;;;52.93;20.50;;;1.50;92.70;;;;;;5040050;28;20450;-85
2021/12/09 05:54:45;;;;;;;56.13;22.80;;;1.50;93.10;;;;;;5054243;28;20071;-80
2021/12/09 05:57:11;;;;;;;53.90;20.80;;;1.50;92.80;;;;;;5032825;28;20138;-85
2021/12/09 05:59:40;;;;;;;54.33;22.57;;;1.60;92.80;;;;;;5051004;28;20178;-86
2021/12/09 06:02:14;;;;;;;53.47;20.20;;;1.50;92.80;;;;;;5039337;28;20076;-83
2021/12/09 06:04:40;;;;;;;55.47;21.33;;;1.50;92.80;;;;;;5049746;28;20118;-86
2021/12/09 06:07:06;;;;;;;53.67;21.73;;;1.50;92.80;;;;;;5066114;28;20086;-83
2021/12/09 06:09:32;;;;;;;51.57;20.50;;;1.60;92.80;;;;;;5049519;28;20110;-83
2021/12/09 06:11:58;;;;;;;52.40;21.70;;;1.50;92.80;;;;;;5050023;28;20133;-83
2021/12/09 06:14:24;;;;;;;55.03;21.97;;;1.50;92.80;;;;;;5055259;28;20077;-83
2021/12/09 06:16:49;;;;;;;59.73;21.90;;;1.50;92.90;;;;;;5026904;28;20093;-83
2021/12/09 06:19:15;;;;;;;92.40;23.20;;;1.50;92.90;;;;;;5059830;28;20071;-83
2021/12/09 06:21:41;;;;;;;58.17;22.53;;;1.50;93.30;;;;;;5054057;28;20074;-83
2021/12/09 06:24:06;;;;;;;57.80;21.10;;;1.50;93.30;;;;;;5054486;28;20070;-83
2021/12/09 06:26:32;;;;;;;61.63;21.10;;;1.50;92.90;;;;;;5054276;28;20090;-83
2021/12/09 06:28:59;;;;;;;58.20;21.80;;;1.50;92.90;;;;;;5070580;28;20434;-80
2021/12/09 06:31:25;;;;;;;59.37;22.33;;;1.50;92.90;;;;;;5068238;28;20122;-81
2021/12/09 06:33:51;;;;;;;64.07;21.30;;;1.50;92.90;;;;;;5037214;28;20086;-83
2021/12/09 06:36:17;;;;;;;55.70;21.07;;;1.50;92.90;;;;;;5054872;28;20617;-82
2021/12/09 06:38:43;;;;;;;69.23;23.57;;;1.50;92.90;;;;;;5071652;28;20909;-83
2021/12/09 06:41:09;;;;;;;58.93;22.50;;;1.50;92.90;;;;;;5056011;28;20066;-82
2021/12/09 06:43:42;;;;;;;55.40;21.00;;;1.50;93.00;;;;;;5055747;28;20912;-84
2021/12/09 06:46:11;;;;;;;62.87;21.90;;;1.50;92.90;;;;;;5035960;28;20082;-84
2021/12/09 06:48:37;;;;;;;58.43;23.40;;;1.50;92.90;;;;;;5053507;28;20094;-84
2021/12/09 06:51:05;;;;;;;56.13;21.63;;;1.50;93.30;;;;;;5074422;28;20131;-84
2021/12/09 06:53:33;;;;;;;67.13;23.30;;;1.50;92.90;;;;;;5077002;28;20506;-84
2021/12/09 06:55:59;;;;;;;62.50;22.43;;;1.40;92.90;;;;;;5075371;28;20102;-83
2021/12/09 06:58:25;;;;;;;62.20;22.70;;;1.50;93.00;;;;;;5052897;28;20526;-84
2021/12/09 07:00:54;;;;;;;62.90;21.73;;;1.50;93.00;;;;;;5057826;28;20139;-84
2021/12/09 07:03:21;;;;;;;54.90;20.83;;;1.40;93.00;;;;;;5076414;28;20075;-84
2021/12/09 07:05:49;;;;;;;69.43;21.77;;;1.40;92.90;;;;;;5039559;28;20079;-84
2021/12/09 07:08:15;;;;;;;58.33;20.90;;;1.40;93.00;;;;;;5046411;28;20078;-84
2021/12/09 07:10:41;;;;;;;58.90;20.60;;;1.40;93.00;;;;;;5054794;28;20587;-84
2021/12/09 07:13:07;;;;;;;55.97;20.43;;;1.40;93.00;;;;;;5045113;28;20533;-84
2021/12/09 07:15:33;;;;;;;57.10;22.20;;;1.40;93.00;;;;;;5079953;28;20069;-83
2021/12/09 07:18:00;;;;;;;63.70;22.30;;;1.40;93.00;;;;;;5044294;28;20529;-84
2021/12/09 07:20:27;;;;;;;59.87;21.27;;;1.40;93.00;;;;;;5075153;28;20074;-83
2021/12/09 07:22:54;;;;;;;58.40;19.80;;;1.40;93.00;;;;;;5077373;28;20170;-83
2021/12/09 07:25:21;;;;;;;63.43;21.00;;;1.40;93.00;;;;;;5066648;28;20071;-83
2021/12/09 07:27:47;;;;;;;55.80;19.73;;;1.40;93.00;;;;;;5075513;28;20078;-84
2021/12/09 07:30:15;;;;;;;62.03;20.67;;;1.40;93.00;;;;;;5072882;28;20488;-84
2021/12/09 07:32:41;;;;;;;61.53;21.93;;;1.40;93.10;;;;;;5077452;28;20095;-84
2021/12/09 07:35:09;;;;;;;75.07;23.23;;;1.40;93.10;;;;;;5074960;28;20078;-84
2021/12/09 07:37:37;;;;;;;62.87;19.80;;;1.40;93.10;;;;;;5054952;28;20125;-83
2021/12/09 07:40:08;;;;;;;57.33;20.93;;;1.40;93.10;;;;;;5037862;28;20079;-84
2021/12/09 07:42:34;;;;;;;56.90;21.00;;;1.40;93.10;;;;;;5063660;28;20158;-83
2021/12/09 07:45:01;;;;;;;63.47;21.63;;;1.40;93.10;;;;;;5039132;28;20079;-84
2021/12/09 07:47:27;;;;;;;62.60;20.90;;;1.50;93.10;;;;;;5038996;28;20550;-84
2021/12/09 07:49:52;;;;;;;57.20;20.53;;;1.50;93.20;;;;;;5045610;28;20149;-84
2021/12/09 07:52:18;;;;;;;61.83;20.23;;;1.50;93.20;;;;;;5053561;28;20103;-83
2021/12/09 07:54:44;;;;;;;66.70;20.70;;;1.50;93.20;;;;;;5043848;28;20071;-83
2021/12/09 07:57:10;;;;;;;71.67;21.47;;;1.50;93.20;;;;;;5021038;28;20088;-83
2021/12/09 07:59:36;;;;;;;57.60;19.63;;;1.50;93.20;;;;;;5021142;28;20141;-84
2021/12/09 08:02:02;;;;;;;57.83;20.07;;;1.50;93.20;;;;;;5022495;28;20099;-84
2021/12/09 08:04:28;;;;;;;59.23;19.30;;;1.60;93.30;;;;;;5033690;28;20550;-84
2021/12/09 08:06:53;;;;;;;51.93;18.03;;;1.60;93.30;;;;;;5030989;28;20071;-81
2021/12/09 08:09:19;;;;;;;64.60;19.67;;;1.60;93.30;;;;;;5053093;28;20075;-80
2021/12/09 08:11:45;;;;;;;54.83;18.60;;;1.60;93.30;;;;;;5043723;28;20185;-82
2021/12/09 08:14:12;;;;;;;58.03;18.70;;;1.70;93.30;;;;;;5040446;28;20162;-82
2021/12/09 08:16:39;;;;;;;68.47;19.93;;;1.70;93.40;;;;;;5042526;28;20064;-82
2021/12/09 08:19:14;;;;;;;62.60;20.13;;;1.70;93.40;;;;;;5038107;28;20076;-81
2021/12/09 08:21:41;;;;;;;54.47;18.53;;;1.70;93.40;;;;;;5054717;28;20083;-81
2021/12/09 08:24:09;;;;;;;63.90;19.43;;;1.70;93.40;;;;;;5058543;28;20067;-81
2021/12/09 08:26:35;;;;;;;62.30;19.07;;;1.70;93.40;;;;;;5054117;28;20083;-81
2021/12/09 08:29:02;;;;;;;63.80;19.60;;;1.80;93.40;;;;;;5032980;28;20086;-81
2021/12/09 08:31:30;;;;;;;66.03;21.60;;;1.80;93.40;;;;;;5055389;28;20147;-82
2021/12/09 08:33:56;;;;;;;57.47;19.43;;;1.80;93.40;;;;;;5036659;28;20102;-82
2021/12/09 08:36:22;;;;;;;70.40;20.00;;;1.80;93.40;;;;;;5038864;28;20095;-81
2021/12/09 08:38:48;;;;;;;57.07;18.33;;;1.80;93.50;;;;;;5052758;28;20543;-82
2021/12/09 08:41:18;;;;;;;59.63;19.63;;;1.90;93.50;;;;;;5055963;28;20090;-81
2021/12/09 08:43:44;;;;;;;61.10;18.63;;;1.90;93.50;;;;;;5035976;28;20075;-82
2021/12/09 08:46:10;;;;;;;57.08;18.75;;;1.90;93.50;;;;;;5037235;28;20426;-82
2021/12/09 08:48:36;;;;;;;62.97;20.23;;;1.90;93.50;;;;;;5055548;28;20082;-82
2021/12/09 08:51:01;;;;;;;60.80;18.53;;;2.00;93.50;;;;;;5038272;28;20110;-81
2021/12/09 08:53:27;;;;;;;54.90;18.17;;;2.00;93.50;;;;;;5040491;28;20534;-82
2021/12/09 08:55:54;;;;;;;57.97;19.07;;;2.00;93.50;;;;;;5042465;28;20603;-82
2021/12/09 08:58:20;;;;;;;51.70;16.87;;;2.00;93.50;;;;;;5070071;28;20070;-82
2021/12/09 09:00:46;;;;;;;59.30;18.60;;;2.10;93.60;;;;;;5051974;28;20071;-82
2021/12/09 09:03:13;;;;;;;55.47;17.77;;;2.10;93.60;;;;;;5072981;28;20075;-82
2021/12/09 09:05:39;;;;;;;68.70;19.90;;;2.10;93.60;;;;;;5059236;28;20442;-83
2021/12/09 09:08:06;;;;;;;56.83;18.83;;;2.10;93.60;;;;;;5055731;28;20576;-83
2021/12/09 09:10:34;;;;;;;67.95;18.73;;;2.20;93.60;;;;;;5057084;28;20085;-83
2021/12/09 09:13:00;;;;;;;62.20;18.80;;;2.20;93.60;;;;;;5057598;28;20649;-83
2021/12/09 09:15:27;;;;;;;53.97;18.13;;;2.20;93.60;;;;;;5055337;28;20074;-83
2021/12/09 09:17:53;;;;;;;56.35;18.38;;;2.20;93.60;;;;;;5071322;28;20075;-83
2021/12/09 09:20:21;;;;;;;60.85;18.98;;;2.30;93.60;;;;;;5053507;28;20065;-83
2021/12/09 09:22:46;;;;;;;51.33;19.55;;;2.30;93.70;;;;;;5073171;28;20143;-83
2021/12/09 09:25:17;;;;;;;53.20;18.90;;;2.40;93.70;;;;;;5045830;28;20101;-83
2021/12/09 09:27:44;;;;;;;51.08;16.90;;;2.40;93.70;;;;;;5071699;28;20153;-83
2021/12/09 09:30:14;;;;;;;52.92;18.02;;;2.40;93.70;;;;;;5054326;28;20079;-83
2021/12/09 09:32:41;;;;;;;49.92;18.23;;;2.50;93.80;;;;;;5072001;28;20083;-83
2021/12/09 09:35:08;;;;;;;43.60;16.85;;;2.50;93.80;;;;;;5065025;28;20066;-83
2021/12/09 09:37:34;;;;;;;48.38;17.63;;;2.50;93.80;;;;;;5058425;28;20063;-83
2021/12/09 09:39:59;;;;;;;46.92;15.93;;;2.50;93.80;;;;;;5073303;28;20186;-83
2021/12/09 09:45:09;;;;;;;40.85;17.20;;;2.70;93.90;;;;;;5076015;28;20160;-82
2021/12/09 09:47:35;;;;;;;45.13;14.93;;;2.70;93.90;;;;;;5053436;28;20072;-83
2021/12/09 09:50:05;;;;;;;31.30;14.65;;;2.80;94.20;;;;;;5056659;28;20111;-83
2021/12/09 09:52:31;;;;;;;44.38;16.25;;;2.90;93.80;;;;;;5066038;28;20086;-83
2021/12/09 09:54:59;;;;;;;31.35;14.35;;;2.90;93.80;;;;;;5052388;28;20071;-83
2021/12/09 09:57:25;;;;;;;40.42;14.73;;;3.00;93.80;;;;;;5050367;28;20063;-83
2021/12/09 09:59:51;;;;;;;40.60;14.13;;;3.00;93.80;;;;;;5056187;28;20501;-82
2021/12/09 10:02:29;;;;;;;40.28;14.70;;;3.10;93.80;;;;;;5049746;28;20106;-85
2021/12/09 10:05:01;;;;;;;46.65;15.52;;;3.10;93.80;;;;;;5034718;28;20534;-85
2021/12/09 10:07:27;;;;;;;44.55;12.82;;;3.20;93.70;;;;;;5031887;28;20087;-86
2021/12/09 10:09:54;;;;;;;39.08;13.73;;;3.20;93.60;;;;;;5052561;28;20091;-85
2021/12/09 10:12:20;;;;;;;33.13;13.15;;;3.20;93.60;;;;;;5038646;28;20090;-85
2021/12/09 10:14:52;;;;;;;36.35;13.55;;;3.20;93.60;;;;;;5053943;28;20089;-85
2021/12/09 10:17:24;;;;;;;39.20;13.73;;;3.20;93.60;;;;;;5050902;28;20138;-85
2021/12/09 10:19:58;;;;;;;35.63;13.07;;;3.30;93.60;;;;;;5068544;28;20556;-85
2021/12/09 10:22:29;;;;;;;31.13;11.82;;;3.30;93.60;;;;;;5057417;28;20073;-85
2021/12/09 10:24:57;;;;;;;43.97;14.70;;;3.30;93.50;;;;;;5069230;28;20181;-85
2021/12/09 10:27:29;;;;;;;44.90;14.05;;;3.30;93.50;;;;;;5072764;28;20444;-84
2021/12/09 10:30:18;;;;;;;38.95;12.63;;;3.30;93.50;;;;;;5064366;28;20157;-85
2021/12/09 10:32:45;;;;;;;41.42;14.73;;;3.30;93.60;;;;;;5049484;28;20079;-85
2021/12/09 10:35:15;;;;;;;32.80;13.38;;;3.40;93.50;;;;;;5052321;28;20075;-86
2021/12/09 10:37:42;;;;;;;43.58;13.77;;;3.40;93.50;;;;;;5048618;28;20529;-85
2021/12/09 10:40:15;;;;;;;36.65;12.50;;;3.40;93.50;;;;;;5035532;28;20166;-85
2021/12/09 10:43:10;;;;;;;40.55;13.50;;;3.40;93.50;;;;;;5048280;28;20088;-84
2021/12/09 10:45:38;;;;;;;37.60;12.98;;;3.40;93.80;;;;;;5057151;28;20089;-85
2021/12/09 10:48:32;;;;;;;36.83;14.43;;;3.50;93.50;;;;;;5051215;28;20483;-85
2021/12/09 10:55:57;;;;;;;45.38;14.60;;;3.50;93.50;;;;;;5074412;28;20106;-85
2021/12/09 10:58:33;;;;;;;47.15;15.88;;;3.60;93.50;;;;;;5066888;28;20069;-85
2021/12/09 11:01:03;;;;;;;41.20;14.63;;;3.60;93.50;;;;;;5044869;28;20093;-85
2021/12/09 11:03:32;;;;;;;47.45;17.50;;;3.70;93.50;;;;;;5070548;28;20530;-85
2021/12/09 11:06:05;;;;;;;44.08;16.30;;;3.70;93.50;;;;;;5066984;28;20094;-85
2021/12/09 11:08:35;;;;;;;41.72;15.85;;;3.70;93.50;;;;;;5051742;28;20118;-85
2021/12/09 11:11:12;;;;;;;39.70;16.02;;;3.70;93.50;;;;;;5053513;28;20083;-85
2021/12/09 11:13:48;;;;;;;45.63;17.17;;;3.70;93.50;;;;;;5042016;28;20123;-84
2021/12/09 11:16:30;;;;;;;39.47;15.70;;;3.80;93.40;;;;;;5045406;28;20437;-85
2021/12/09 11:19:23;;;;;;;41.90;16.65;;;3.80;93.40;;;;;;5047095;28;20415;-85
2021/12/09 11:21:56;;;;;;;45.10;15.32;;;3.80;93.40;;;;;;5042347;28;20074;-84
2021/12/09 11:24:27;;;;;;;49.15;17.02;;;3.80;93.30;;;;;;5050437;28;20501;-84
2021/12/09 11:27:00;;;;;;;50.63;17.30;;;3.80;93.40;;;;;;5053779;28;20078;-85
2021/12/09 11:29:30;;;;;;;46.47;18.17;;;3.90;93.40;;;;;;5069092;28;20469;-85
2021/12/09 11:32:02;;;;;;;48.47;17.33;;;3.90;93.40;;;;;;5047891;28;20183;-85
2021/12/09 11:34:46;;;;;;;57.35;17.65;;;3.90;93.40;;;;;;5059570;28;20196;-85
2021/12/09 11:39:58;;;;;;;50.42;18.58;;;4.00;93.30;;;;;;5057839;28;20076;-85
2021/12/09 11:43:10;;;;;;;57.83;17.67;;;4.00;93.30;;;;;;5029999;28;20489;-85
2021/12/09 11:45:18;;;;;;;47.10;17.13;;;4.00;93.30;;;;;;5060646;28;20074;-85
2021/12/09 11:47:52;;;;;;;61.25;19.52;;;4.00;93.30;;;;;;5068351;28;20883;-85
2021/12/09 11:50:23;;;;;;;45.05;18.23;;;4.00;93.30;;;;;;5048671;28;20113;-85
2021/12/09 11:52:52;;;;;;;53.92;19.02;;;4.00;93.30;;;;;;5066983;28;20109;-84
2021/12/09 11:55:21;;;;;;;55.42;20.40;;;4.00;93.30;;;;;;5050161;28;20522;-85
2021/12/09 12:15:45;;;;;;;81.15;29.05;;;4.20;93.30;;;;;;5063500;28;20540;-85
2021/12/09 12:18:54;;;;;;;75.35;30.60;;;4.20;93.30;;;;;;5072784;28;20079;-85
2021/12/09 12:30:03;;;;;;;60.95;21.65;;;4.20;93.30;;;;;;5064794;28;20086;-85
2021/12/09 12:32:58;;;;;;;;;;;4.20;93.30;;;;;;5046330;28;20086;-85
2021/12/09 12:38:33;;;;;;;62.40;20.70;;;4.30;93.20;;;;;;5063833;28;20122;-81
2021/12/09 12:41:11;;;;;;;63.65;21.67;;;4.30;93.30;;;;;;5048985;28;20090;-85
2021/12/09 12:43:46;;;;;;;57.38;20.00;;;4.30;93.30;;;;;;5054341;28;20081;-85
2021/12/09 12:46:46;;;;;;;60.22;23.45;;;4.30;93.30;;;;;;5067246;28;20062;-85
2021/12/09 12:49:24;;;;;;;62.65;22.80;;;4.40;93.40;;;;;;5051649;28;20078;-84
2021/12/09 12:51:59;;;;;;;70.50;24.27;;;4.40;93.30;;;;;;5053001;28;20083;-82
2021/12/09 12:57:26;;;;;;;74.18;25.60;;;4.40;93.40;;;;;;5063836;28;20066;-87
2021/12/09 13:00:07;;;;;;;77.50;25.83;;;4.50;93.30;;;;;;5053753;28;20065;-86
2021/12/09 13:06:06;;;;;;;63.45;23.83;;;4.50;93.40;;;;;;5069563;28;20682;-86
2021/12/09 13:08:52;;;;;;;76.05;25.83;;;4.50;93.30;;;;;;5050495;28;20135;-85
2021/12/09 13:11:50;;;;;;;72.57;22.15;;;4.60;93.30;;;;;;5071384;28;20092;-88
2021/12/09 13:14:22;;;;;;;56.47;20.27;;;4.60;93.30;;;;;;5044670;28;20425;-89
2021/12/09 13:17:03;;;;;;;70.07;22.95;;;4.60;93.20;;;;;;5055496;28;20585;-86
2021/12/09 13:19:38;;;;;;;59.88;21.20;;;4.60;93.30;;;;;;5057766;28;20076;-85
2021/12/09 13:22:09;;;;;;;72.07;21.60;;;4.60;93.30;;;;;;5053891;28;20124;-88
2021/12/09 13:27:42;;;;;;;65.20;21.33;;;4.60;93.30;;;;;;5053503;28;20220;-82
2021/12/09 13:50:14;;;;;;;53.25;20.42;;;4.80;93.20;;;;;;5033871;28;20116;-88
2021/12/09 13:55:14;;;;;;;59.65;20.20;;;4.70;93.20;;;;;;5073050;28;20086;-86
2021/12/09 13:57:42;;;;;;;65.30;21.17;;;4.80;93.20;;;;;;5054259;28;20066;-84